createdAt,value
2023-03-12T00:06:39.274Z,3.93
2023-03-12T00:21:41.635Z,3.33
2023-03-12T00:36:44.200Z,3.03
2023-03-12T00:51:46.727Z,2.83
2023-03-12T01:06:49.081Z,3.30
2023-03-12T01:21:51.806Z,4.17
2023-03-12T01:36:55.310Z,4.50
2023-03-12T01:52:03.336Z,4.77
2023-03-12T02:07:13.769Z,5.37
2023-03-12T02:22:16.411Z,4.63
2023-03-12T02:37:19.884Z,4.13
2023-03-12T02:52:22.402Z,1.80
2023-03-12T03:07:24.784Z,1.80
2023-03-12T03:22:27.410Z,1.60
2023-03-12T03:37:29.825Z,1.90
2023-03-12T03:52:32.867Z,1.90
2023-03-12T04:07:35.462Z,2.40
2023-03-12T04:22:38.271Z,2.10
2023-03-12T04:37:41.268Z,2.43
2023-03-12T04:52:43.814Z,2.80
2023-03-12T05:07:47.053Z,2.90
2023-03-12T05:22:49.575Z,2.80
2023-03-12T05:37:52.480Z,2.67
2023-03-12T05:52:55.004Z,2.83
2023-03-12T06:07:57.695Z,2.73
2023-03-12T06:23:00.198Z,3.03
2023-03-12T06:38:02.670Z,2.43
2023-03-12T06:53:05.500Z,2.30
2023-03-12T07:08:07.876Z,2.20
2023-03-12T07:23:10.680Z,2.93
2023-03-12T07:38:13.673Z,3.40
2023-03-12T07:53:16.214Z,4.67
2023-03-12T08:08:18.610Z,3.63
2023-03-12T08:23:23.028Z,3.57
2023-03-12T08:38:25.513Z,3.23
2023-03-12T08:53:28.218Z,2.67
2023-03-12T09:08:30.740Z,2.43
2023-03-12T09:23:33.136Z,3.10
2023-03-12T09:38:37.734Z,5.07
2023-03-12T09:53:51.513Z,4.67
2023-03-12T10:09:06.952Z,5.63
2023-03-12T10:24:31.418Z,7.63
2023-03-12T10:39:33.771Z,9.83
2023-03-12T10:54:40.964Z,8.77
2023-03-12T11:09:43.726Z,10.67
2023-03-12T11:24:56.892Z,8.30
2023-03-12T11:40:28.980Z,7.60
2023-03-12T11:55:55.312Z,5.77
2023-03-12T12:11:24.630Z,5.30
2023-03-12T12:26:47.457Z,4.53
2023-03-12T12:41:57.767Z,5.57
2023-03-12T12:57:35.583Z,4.47
2023-03-12T13:12:56.084Z,4.17
2023-03-12T13:28:02.181Z,4.47
2023-03-12T13:43:15.669Z,4.23
2023-03-12T13:58:23.430Z,3.93
2023-03-12T14:13:34.628Z,4.37
2023-03-12T14:28:41.941Z,4.23
2023-03-12T14:43:46.265Z,4.53
2023-03-12T14:58:49.854Z,4.20
2023-03-12T15:13:54.788Z,3.87
2023-03-12T15:28:58.429Z,3.60
2023-03-12T15:44:01.497Z,3.77
2023-03-12T15:59:17.879Z,3.90
2023-03-12T16:14:24.456Z,4.30
2023-03-12T16:29:32.280Z,4.10
2023-03-12T16:44:35.212Z,3.87
2023-03-12T16:59:38.401Z,3.90
2023-03-12T17:14:40.990Z,4.50
2023-03-12T17:29:43.415Z,4.70
2023-03-12T17:44:45.984Z,4.87
2023-03-12T17:59:48.504Z,4.43
2023-03-12T18:14:51.093Z,5.27
2023-03-12T18:29:54.534Z,4.77
2023-03-12T18:44:56.948Z,5.07
2023-03-12T18:59:59.437Z,5.33
2023-03-12T19:15:01.784Z,4.40
2023-03-12T19:30:04.966Z,4.67
2023-03-12T19:45:07.912Z,4.63
2023-03-12T20:00:12.428Z,4.87
2023-03-12T20:15:15.161Z,4.00
2023-03-12T20:30:17.605Z,4.57
2023-03-12T20:45:19.991Z,4.33
2023-03-12T21:00:22.604Z,3.80
2023-03-12T21:15:24.902Z,4.30
2023-03-12T21:30:27.772Z,4.90
2023-03-12T21:45:30.605Z,4.90
2023-03-12T22:00:32.946Z,3.53
2023-03-12T22:15:35.467Z,3.67
2023-03-12T22:30:37.892Z,4.20
2023-03-12T22:45:40.255Z,3.77
2023-03-12T23:00:42.708Z,3.37
2023-03-12T23:15:45.333Z,3.00
2023-03-12T23:31:05.124Z,3.10
2023-03-12T23:46:08.652Z,3.27
